Time;durP1;ratioP1;P1;durP2;ratioP2;P2;SDS_P1;SDS_P2;PMS_P1;PMS_P2;Temp;Humidity;BMP_temperature;BMP_pressure;BME280_temperature;BME280_humidity;BME280_pressure;Samples;Min_cycle;Max_cycle;Signal;HPM_P1;HPM_P2
2023/10/02 00:05:06;;;;;;;20.83;11.15;;;;;;;18.58;74.66;102103.44;7395072;19;20018;-64
2023/10/02 00:07:36;;;;;;;23.70;11.63;;;;;;;18.61;74.69;102099.66;7396470;19;20015;-64
2023/10/02 00:10:05;;;;;;;18.45;10.68;;;;;;;18.61;74.66;102105.84;7394839;19;20018;-64
2023/10/02 00:12:34;;;;;;;22.23;11.35;;;;;;;18.62;74.76;102096.84;7395956;19;20045;-64
2023/10/02 00:15:12;;;;;;;21.23;11.55;;;;;;;18.62;74.69;102096.84;7396423;19;20040;-64
2023/10/02 00:17:43;;;;;;;20.80;10.68;;;;;;;18.62;74.99;102096.84;7396344;19;20338;-64
2023/10/02 00:20:32;;;;;;;18.55;10.55;;;;;;;18.61;75.01;102105.00;7395344;19;20374;-64
2023/10/02 00:23:01;;;;;;;20.23;10.65;;;;;;;18.58;75.05;102105.25;7394427;19;20018;-64
2023/10/02 00:25:29;;;;;;;20.40;10.73;;;;;;;18.55;75.29;102102.88;7393224;19;20484;-64
2023/10/02 00:27:59;;;;;;;23.10;11.80;;;;;;;18.56;75.42;102104.56;7393179;19;20035;-64
2023/10/02 00:30:36;;;;;;;21.42;11.85;;;;;;;18.55;75.39;102106.41;7393207;19;20028;-64
2023/10/02 00:33:05;;;;;;;20.25;11.40;;;;;;;18.56;74.99;102101.88;7397044;19;20021;-64
2023/10/02 00:35:50;;;;;;;22.15;12.00;;;;;;;18.60;74.58;102108.69;7390726;19;20066;-64
2023/10/02 00:38:18;;;;;;;19.25;11.10;;;;;;;18.55;74.99;102098.34;7393679;19;20101;-64
2023/10/02 00:40:46;;;;;;;21.30;11.20;;;;;;;18.54;74.81;102093.94;7395547;19;20428;-64
2023/10/02 00:45:59;;;;;;;21.02;11.40;;;;;;;18.49;75.19;102094.34;7395705;19;20092;-64
2023/10/02 00:48:28;;;;;;;23.85;11.98;;;;;;;18.47;74.99;102099.00;7393877;19;20035;-64
2023/10/02 00:51:00;;;;;;;19.75;11.38;;;;;;;18.53;75.06;102097.63;7393685;19;20014;-64
2023/10/02 00:53:45;;;;;;;18.80;10.85;;;;;;;18.63;74.77;102101.22;7395263;19;20375;-64
2023/10/02 00:56:28;;;;;;;20.30;11.77;;;;;;;18.58;75.10;102097.22;7394851;19;20034;-64
2023/10/02 00:59:00;;;;;;;20.17;10.67;;;;;;;18.52;75.44;102094.09;7392095;19;20374;-64
2023/10/02 01:01:31;;;;;;;20.02;10.65;;;;;;;18.49;76.14;102093.50;7396395;19;20018;-64
2023/10/02 01:04:11;;;;;;;19.83;10.27;;;;;;;18.45;75.88;102092.91;7399288;19;20018;-64
2023/10/02 01:07:04;;;;;;;19.23;11.20;;;;;;;18.46;76.00;102091.91;7394955;19;20017;-64
2023/10/02 01:09:36;;;;;;;20.77;11.03;;;;;;;18.37;76.25;102084.69;7392346;19;20022;-64
2023/10/02 01:12:05;;;;;;;19.08;11.05;;;;;;;18.41;75.92;102086.13;7394424;19;20617;-64
2023/10/02 01:14:40;;;;;;;20.30;11.30;;;;;;;18.37;75.76;102075.78;7394220;19;20022;-64
2023/10/02 01:17:09;;;;;;;20.05;11.43;;;;;;;18.45;75.61;102081.34;7394186;19;20019;-64
2023/10/02 01:19:52;;;;;;;20.90;11.48;;;;;;;18.49;75.44;102080.09;7390301;19;20116;-64
2023/10/02 01:22:27;;;;;;;20.77;10.38;;;;;;;18.41;76.15;102074.53;7391602;19;20027;-64
2023/10/02 01:25:12;;;;;;;19.45;10.80;;;;;;;18.35;76.36;102086.63;7393347;19;20352;-64
2023/10/02 01:27:47;;;;;;;21.70;11.90;;;;;;;18.32;76.44;102081.56;7394696;19;20096;-64
2023/10/02 01:30:18;;;;;;;19.83;10.70;;;;;;;18.36;76.39;102085.66;7392823;19;20018;-64
2023/10/02 01:33:14;;;;;;;21.38;11.35;;;;;;;18.41;76.40;102087.94;7397200;19;20030;-64
2023/10/02 01:35:49;;;;;;;19.60;11.10;;;;;;;18.35;76.42;102081.25;7394379;19;20031;-63
2023/10/02 01:38:29;;;;;;;17.85;10.80;;;;;;;18.36;76.51;102084.81;7392254;19;20038;-64
2023/10/02 01:41:06;;;;;;;18.95;10.90;;;;;;;18.38;76.56;102082.84;7393717;19;20018;-64
2023/10/02 01:43:39;;;;;;;20.15;11.35;;;;;;;18.41;76.67;102079.91;7392437;19;20078;-64
2023/10/02 01:46:07;;;;;;;21.08;11.43;;;;;;;18.46;75.85;102081.19;7392869;19;20026;-64
2023/10/02 01:48:44;;;;;;;22.67;11.80;;;;;;;18.46;76.27;102077.66;7391815;19;20026;-64
2023/10/02 01:53:56;;;;;;;19.60;10.77;;;;;;;18.48;76.39;102076.56;7392305;19;20014;-64
2023/10/02 01:56:27;;;;;;;20.42;11.43;;;;;;;18.37;76.57;102076.63;7393363;19;20026;-64
2023/10/02 01:59:08;;;;;;;17.88;10.45;;;;;;;18.42;76.80;102068.19;7391622;19;20414;-64
2023/10/02 02:01:46;;;;;;;19.80;10.85;;;;;;;18.38;77.04;102066.75;7391369;19;20022;-64
2023/10/02 02:04:18;;;;;;;19.75;10.27;;;;;;;18.42;76.91;102062.81;7395353;19;20018;-64
2023/10/02 02:06:52;;;;;;;20.67;10.85;;;;;;;18.44;76.42;102059.03;7392168;19;20035;-65
2023/10/02 02:09:33;;;;;;;20.50;11.27;;;;;;;18.52;76.25;102063.72;7391246;19;20493;-65
2023/10/02 02:12:05;;;;;;;23.67;12.13;;;;;;;18.45;76.32;102055.34;7392297;19;20021;-65
2023/10/02 02:14:49;;;;;;;22.48;12.25;;;;;;;18.51;75.92;102060.22;7391851;19;20387;-64
2023/10/02 02:17:26;;;;;;;19.90;11.70;;;;;;;18.55;76.00;102052.75;7391386;19;20362;-65
2023/10/02 02:19:59;;;;;;;23.67;11.73;;;;;;;18.57;75.44;102048.06;7388110;19;20392;-64
2023/10/02 02:22:32;;;;;;;21.20;12.15;;;;;;;18.58;75.69;102048.91;7391313;19;20356;-64
2023/10/02 02:25:00;;;;;;;22.00;11.20;;;;;;;18.59;75.44;102045.28;7392267;19;20074;-64
2023/10/02 02:27:29;;;;;;;19.67;11.13;;;;;;;18.60;75.39;102050.50;7390200;19;20039;-64
2023/10/02 02:29:58;;;;;;;22.20;12.18;;;;;;;18.61;75.04;102049.50;7389473;19;20031;-64
2023/10/02 02:32:54;;;;;;;20.02;11.50;;;;;;;18.65;75.22;102050.09;7393780;19;20014;-64
2023/10/02 02:35:22;;;;;;;22.00;11.23;;;;;;;18.62;75.28;102047.66;7391956;19;20023;-64
2023/10/02 02:37:50;;;;;;;21.25;11.48;;;;;;;18.58;75.55;102048.91;7390075;19;20098;-64
2023/10/02 02:40:27;;;;;;;22.30;12.23;;;;;;;18.60;75.32;102042.44;7391008;19;20026;-64
2023/10/02 02:42:56;;;;;;;20.20;11.10;;;;;;;18.61;75.41;102051.34;7390770;19;20015;-63
2023/10/02 02:45:28;;;;;;;21.30;11.85;;;;;;;18.61;75.27;102048.66;7390795;19;20356;-63
2023/10/02 02:48:04;;;;;;;20.02;11.38;;;;;;;18.59;75.38;102047.97;7389552;19;20018;-63
2023/10/02 02:50:37;;;;;;;21.60;11.98;;;;;;;18.59;75.64;102050.66;7391032;19;20035;-64
2023/10/02 02:53:17;;;;;;;20.30;11.07;;;;;;;18.57;75.79;102055.28;7389607;19;20011;-64
2023/10/02 02:55:57;;;;;;;20.45;11.65;;;;;;;18.55;76.01;102047.38;7389742;19;20074;-63
2023/10/02 02:58:25;;;;;;;19.55;10.82;;;;;;;18.60;76.03;102044.28;7388348;19;20029;-63
2023/10/02 03:00:53;;;;;;;23.55;12.07;;;;;;;18.61;75.65;102038.78;7390845;19;20018;-63
2023/10/02 03:03:33;;;;;;;19.73;11.15;;;;;;;18.62;75.53;102037.81;7392732;19;20026;-63
2023/10/02 03:06:04;;;;;;;21.15;11.05;;;;;;;18.58;75.63;102041.72;7390406;19;20114;-63
2023/10/02 03:08:41;;;;;;;19.20;10.68;;;;;;;18.60;75.67;102047.81;7389626;19;20372;-63
2023/10/02 03:11:10;;;;;;;20.90;11.43;;;;;;;18.57;75.85;102042.72;7389411;19;20017;-63
2023/10/02 03:13:40;;;;;;;19.33;11.07;;;;;;;18.62;75.08;102045.88;7389705;19;20019;-63
2023/10/02 03:16:12;;;;;;;21.25;10.85;;;;;;;18.67;75.16;102046.31;7390247;19;20074;-63
2023/10/02 03:18:43;;;;;;;20.25;11.85;;;;;;;18.63;75.16;102054.75;7388744;19;20047;-63
2023/10/02 03:21:21;;;;;;;19.23;11.00;;;;;;;18.69;74.74;102049.69;7390859;19;20019;-63
2023/10/02 03:23:54;;;;;;;21.60;11.65;;;;;;;18.70;74.98;102042.50;7388162;19;20090;-63
2023/10/02 03:29:11;;;;;;;17.98;10.55;;;;;;;18.69;74.98;102036.25;7388102;19;20424;-63
2023/10/02 03:31:49;;;;;;;20.92;11.68;;;;;;;18.64;75.38;102033.16;7391834;19;20432;-63
2023/10/02 03:34:29;;;;;;;18.33;10.32;;;;;;;18.61;76.15;102022.69;7393531;19;20025;-64
2023/10/02 03:39:59;;;;;;;20.48;12.00;;;;;;;18.47;75.98;102020.38;7387934;19;20014;-63
2023/10/02 03:42:36;;;;;;;23.55;11.90;;;;;;;18.49;75.75;102021.06;7390021;19;20015;-63
2023/10/02 03:45:04;;;;;;;22.77;12.25;;;;;;;18.54;75.32;102020.66;7395427;19;20015;-63
2023/10/02 03:47:36;;;;;;;19.92;11.50;;;;;;;18.57;74.98;102023.94;7395182;19;20500;-64
2023/10/02 03:50:10;;;;;;;21.13;11.73;;;;;;;18.61;74.98;102020.00;7394296;19;20039;-65
2023/10/02 03:52:41;;;;;;;19.83;11.10;;;;;;;18.60;74.90;102031.72;7396403;19;20014;-65
2023/10/02 03:55:17;;;;;;;23.05;12.02;;;;;;;18.57;74.98;102031.97;7397288;19;20749;-64
2023/10/02 03:57:49;;;;;;;18.42;10.80;;;;;;;18.59;74.93;102032.72;7396497;19;20018;-64
2023/10/02 04:00:27;;;;;;;23.35;12.20;;;;;;;18.58;74.88;102022.94;7395940;19;20033;-64
2023/10/02 04:02:57;;;;;;;22.45;12.60;;;;;;;18.56;74.89;102024.06;7397871;19;20033;-64
2023/10/02 04:08:21;;;;;;;22.05;12.07;;;;;;;18.60;74.79;102015.63;7395208;19;20014;-64
2023/10/02 04:10:55;;;;;;;24.52;12.68;;;;;;;18.60;74.40;102009.41;7396311;19;20018;-64
2023/10/02 04:13:38;;;;;;;21.33;12.02;;;;;;;18.64;74.17;102011.69;7396660;19;20022;-64
2023/10/02 04:19:02;;;;;;;21.40;12.40;;;;;;;18.52;74.81;102002.03;7392645;19;20024;-64
2023/10/02 04:21:33;;;;;;;20.45;11.55;;;;;;;18.59;74.86;102005.03;7394389;19;20494;-65
2023/10/02 04:24:05;;;;;;;24.48;12.57;;;;;;;18.61;74.47;102003.88;7393825;19;20356;-64
2023/10/02 04:26:33;;;;;;;21.10;11.75;;;;;;;18.62;74.22;102000.25;7396239;19;20018;-64
2023/10/02 04:32:11;;;;;;;22.25;11.48;;;;;;;18.61;74.24;101989.63;7397416;19;20026;-64
2023/10/02 04:34:46;;;;;;;21.23;11.75;;;;;;;18.58;74.22;101990.75;7399596;19;20452;-64
2023/10/02 04:37:20;;;;;;;19.60;10.98;;;;;;;18.58;74.62;101988.06;7395706;19;20022;-64
2023/10/02 04:42:25;;;;;;;21.75;12.48;;;;;;;18.62;74.35;101985.97;7395701;19;20023;-64
2023/10/02 04:45:20;;;;;;;21.45;11.20;;;;;;;18.63;74.45;101985.84;7393191;19;20373;-64
2023/10/02 04:47:54;;;;;;;19.63;11.95;;;;;;;18.58;74.44;101992.56;7394847;19;20429;-64
2023/10/02 04:53:24;;;;;;;19.17;11.43;;;;;;;18.58;74.53;101984.53;7395556;19;20483;-64
2023/10/02 04:55:44;;;;;;;21.27;11.68;;;;;;;18.58;74.77;101992.56;7393849;19;20011;-64
2023/10/02 04:58:20;;;;;;;20.98;11.15;;;;;;;18.60;74.45;101996.00;7391558;19;20023;-64
2023/10/02 05:03:46;;;;;;;21.40;11.82;;;;;;;18.64;74.49;102000.09;7397138;19;20174;-64
2023/10/02 05:06:16;;;;;;;18.40;10.80;;;;;;;18.60;74.27;102001.34;7393105;19;20018;-64
2023/10/02 05:11:24;;;;;;;;;;;;;;;18.38;74.59;102000.53;7396108;19;20512;-64
2023/10/02 05:16:38;;;;;;;22.30;11.45;;;;;;;18.24;76.00;101995.53;7394445;19;20332;-64
2023/10/02 05:19:08;;;;;;;18.60;10.75;;;;;;;18.40;75.24;101998.59;7390189;19;20022;-64
2023/10/02 05:21:39;;;;;;;23.55;11.75;;;;;;;18.52;74.68;102005.56;7393681;19;20762;-64
2023/10/02 05:24:11;;;;;;;20.25;10.52;;;;;;;18.53;74.80;102006.41;7394149;19;20018;-64
2023/10/02 05:26:44;;;;;;;20.05;11.10;;;;;;;18.56;74.21;102008.81;7394120;19;20040;-64
2023/10/02 05:29:17;;;;;;;20.17;10.52;;;;;;;18.55;74.29;102011.66;7392018;19;20011;-64
2023/10/02 05:31:49;;;;;;;23.50;11.98;;;;;;;18.60;74.17;102006.72;7395434;19;20010;-64
2023/10/02 05:34:24;;;;;;;18.73;10.65;;;;;;;18.61;74.48;102000.38;7396571;19;20022;-64
2023/10/02 05:37:23;;;;;;;20.48;11.07;;;;;;;18.59;74.29;102007.72;7393837;19;20043;-64
2023/10/02 05:39:42;;;;;;;19.38;11.15;;;;;;;18.56;74.22;102013.34;7390778;19;20025;-64
2023/10/02 05:42:14;;;;;;;21.88;11.00;;;;;;;18.47;74.55;102004.28;7393615;19;20028;-64
2023/10/02 05:44:43;;;;;;;20.23;11.80;;;;;;;18.46;74.75;102015.97;7391806;19;20025;-64
2023/10/02 05:47:15;;;;;;;20.70;11.60;;;;;;;18.48;74.56;102009.50;7393408;19;20022;-64
2023/10/02 05:49:47;;;;;;;22.75;11.02;;;;;;;18.50;74.68;102026.28;7390872;19;20014;-64
2023/10/02 05:52:19;;;;;;;21.08;11.25;;;;;;;18.55;74.49;102020.53;7393440;19;20783;-64
2023/10/02 05:54:53;;;;;;;20.42;11.32;;;;;;;18.59;74.05;102015.75;7392561;19;20021;-64
2023/10/02 05:57:31;;;;;;;22.17;11.80;;;;;;;18.60;74.21;102022.81;7392977;19;20094;-64
2023/10/02 06:00:00;;;;;;;21.48;10.38;;;;;;;18.56;74.39;102027.59;7392595;19;20018;-64
2023/10/02 06:02:28;;;;;;;20.83;10.90;;;;;;;18.59;74.50;102023.81;7394083;19;20041;-64
2023/10/02 06:05:07;;;;;;;22.60;11.80;;;;;;;18.57;74.25;102025.75;7394880;19;20093;-64
2023/10/02 06:07:45;;;;;;;22.00;11.27;;;;;;;18.59;74.56;102026.50;7390790;19;20047;-64
2023/10/02 06:10:26;;;;;;;19.92;10.95;;;;;;;18.64;74.64;102034.97;7390227;19;20107;-64
2023/10/02 06:13:05;;;;;;;20.67;11.20;;;;;;;18.63;74.16;102034.13;7392522;19;20018;-64
2023/10/02 06:15:43;;;;;;;19.30;11.40;;;;;;;18.64;74.39;102037.66;7392459;19;20019;-64
2023/10/02 06:18:11;;;;;;;20.60;11.32;;;;;;;18.62;74.07;102024.41;7389601;19;20022;-64
2023/10/02 06:20:57;;;;;;;19.40;11.50;;;;;;;18.63;74.07;102019.88;7392263;19;20022;-64
2023/10/02 06:23:29;;;;;;;22.02;11.23;;;;;;;18.56;74.79;102034.81;7391708;19;20011;-64
2023/10/02 06:25:59;;;;;;;20.17;11.25;;;;;;;18.56;74.23;102024.06;7391928;19;20019;-64
2023/10/02 06:28:27;;;;;;;21.95;12.02;;;;;;;18.58;74.37;102022.09;7390608;19;20374;-64
2023/10/02 06:30:55;;;;;;;21.75;11.65;;;;;;;18.61;74.28;102027.19;7391367;19;20023;-64
2023/10/02 06:33:23;;;;;;;20.88;11.98;;;;;;;18.68;74.20;102031.88;7394160;19;20011;-64
2023/10/02 06:36:00;;;;;;;21.95;11.80;;;;;;;18.69;74.01;102030.06;7391954;19;20023;-64
2023/10/02 06:38:30;;;;;;;20.27;11.52;;;;;;;18.67;74.00;102022.16;7391182;19;20367;-65
2023/10/02 06:40:59;;;;;;;19.38;10.18;;;;;;;18.68;74.04;102023.84;7392853;19;20047;-65
2023/10/02 06:43:32;;;;;;;19.67;10.73;;;;;;;18.64;74.70;102032.31;7392948;19;20021;-65
2023/10/02 06:46:07;;;;;;;22.75;11.90;;;;;;;18.68;74.03;102034.56;7392029;19;20019;-65
2023/10/02 06:48:43;;;;;;;20.13;11.43;;;;;;;18.67;74.64;102027.50;7387764;19;20484;-65
2023/10/02 06:51:13;;;;;;;22.83;12.18;;;;;;;18.65;74.37;102029.47;7391604;19;20014;-65
2023/10/02 06:53:43;;;;;;;20.83;11.85;;;;;;;18.70;74.36;102031.78;7391629;19;20011;-65
2023/10/02 06:56:12;;;;;;;19.73;11.27;;;;;;;18.70;74.30;102031.78;7390811;19;20519;-65
2023/10/02 06:58:52;;;;;;;23.00;12.00;;;;;;;18.71;74.45;102020.94;7389784;19;20026;-65
2023/10/02 07:01:26;;;;;;;22.52;11.98;;;;;;;18.75;74.13;102030.41;7392205;19;20018;-65
2023/10/02 07:03:56;;;;;;;;;;;;;;;18.50;74.98;102037.03;7394443;19;20365;-65
2023/10/02 07:06:25;;;;;;;22.27;11.55;;;;;;;18.50;75.25;102031.66;7390226;19;19938;-64
2023/10/02 07:09:12;;;;;;;20.02;10.52;;;;;;;18.66;74.53;102033.88;7389299;19;20082;-64
2023/10/02 07:11:45;;;;;;;19.13;10.75;;;;;;;18.74;74.71;102039.44;7391484;19;20472;-65
2023/10/02 07:14:13;;;;;;;18.80;11.33;;;;;;;18.79;74.12;102043.56;7391332;19;20023;-67
2023/10/02 07:16:41;;;;;;;21.42;11.13;;;;;;;18.81;74.00;102052.31;7389379;19;20023;-64
2023/10/02 07:19:10;;;;;;;20.77;11.88;;;;;;;18.83;74.25;102043.16;7391534;19;20105;-66
2023/10/02 07:21:40;;;;;;;21.95;11.55;;;;;;;18.88;74.12;102040.06;7397857;19;20543;-64
2023/10/02 07:24:27;;;;;;;22.50;11.75;;;;;;;18.85;74.20;102037.63;7397665;19;20033;-63
2023/10/02 07:26:56;;;;;;;20.58;11.25;;;;;;;18.92;74.19;102031.59;7398342;19;20370;-65
2023/10/02 07:29:37;;;;;;;22.58;11.55;;;;;;;18.99;73.92;102037.25;7395198;19;20010;-64
2023/10/02 07:32:06;;;;;;;20.75;11.95;;;;;;;18.97;73.69;102031.19;7398202;19;20018;-63
2023/10/02 07:34:34;;;;;;;20.52;11.65;;;;;;;19.04;73.41;102027.00;7398078;19;20015;-64
2023/10/02 07:37:05;;;;;;;21.52;11.57;;;;;;;19.03;73.99;102027.94;7397533;19;20015;-64
2023/10/02 07:39:35;;;;;;;20.95;10.80;;;;;;;19.11;73.94;102033.47;7394696;19;20018;-64
2023/10/02 07:42:07;;;;;;;21.65;11.52;;;;;;;19.17;73.55;102024.88;7397568;19;20022;-63
2023/10/02 07:44:38;;;;;;;21.30;11.38;;;;;;;19.19;73.49;102024.72;7396221;19;20019;-63
2023/10/02 07:47:19;;;;;;;21.60;11.88;;;;;;;19.27;73.37;102021.34;7396953;19;20082;-64
2023/10/02 07:49:51;;;;;;;24.38;11.77;;;;;;;19.22;73.47;102033.38;7394155;19;20504;-63
2023/10/02 07:52:39;;;;;;;20.80;11.65;;;;;;;19.24;73.13;102025.19;7396960;19;20025;-64
2023/10/02 07:55:10;;;;;;;22.13;11.77;;;;;;;19.29;72.89;102027.44;7396808;19;20364;-63
2023/10/02 07:57:38;;;;;;;22.40;11.88;;;;;;;19.34;73.05;102035.94;7396776;19;20022;-63
2023/10/02 08:02:54;;;;;;;21.70;11.35;;;;;;;19.53;72.16;102030.59;7396553;19;20018;-63
2023/10/02 08:05:25;;;;;;;22.40;11.48;;;;;;;19.66;72.00;102024.97;7394638;19;20007;-63
2023/10/02 08:08:08;;;;;;;22.02;12.00;;;;;;;19.68;72.05;102029.22;7396634;19;20023;-63
2023/10/02 08:10:52;;;;;;;21.75;11.90;;;;;;;19.72;72.12;102030.63;7396672;19;20019;-64
2023/10/02 08:13:32;;;;;;;24.80;12.63;;;;;;;19.71;72.22;102028.94;7396572;19;20070;-64
2023/10/02 08:16:08;;;;;;;21.17;11.68;;;;;;;19.82;71.68;102025.25;7396725;19;20023;-63
2023/10/02 08:18:57;;;;;;;21.27;11.38;;;;;;;19.84;71.88;102017.91;7394488;19;20015;-64
2023/10/02 08:21:36;;;;;;;21.85;11.30;;;;;;;19.84;71.96;102019.72;7396485;19;20029;-64
2023/10/02 08:24:05;;;;;;;23.52;12.07;;;;;;;19.86;71.80;102018.59;7395463;19;20037;-64
2023/10/02 08:26:38;;;;;;;21.20;11.52;;;;;;;19.90;72.12;102017.31;7396172;19;20015;-64
2023/10/02 08:29:08;;;;;;;21.58;11.10;;;;;;;19.91;72.10;102020.84;7393414;19;20077;-64
2023/10/02 08:31:43;;;;;;;21.90;11.73;;;;;;;19.99;71.70;102017.44;7395563;19;20419;-64
2023/10/02 08:34:12;;;;;;;21.67;11.57;;;;;;;20.02;72.03;102019.84;7395572;19;20497;-65
2023/10/02 08:36:42;;;;;;;22.67;12.00;;;;;;;20.00;71.93;102020.00;7396039;19;20023;-65
2023/10/02 08:39:09;;;;;;;22.40;12.23;;;;;;;20.10;71.89;102017.28;7393275;19;20523;-64
2023/10/02 08:41:50;;;;;;;23.08;11.40;;;;;;;20.18;71.79;102026.34;7393743;19;20084;-63
2023/10/02 08:44:22;;;;;;;19.80;10.63;;;;;;;20.19;71.28;102022.66;7395514;19;20037;-63
2023/10/02 08:46:50;;;;;;;21.45;11.40;;;;;;;20.21;71.43;102019.81;7395678;19;20018;-63
2023/10/02 08:49:18;;;;;;;20.85;11.50;;;;;;;20.21;71.85;102026.03;7393062;19;20043;-62
2023/10/02 08:51:48;;;;;;;22.50;12.43;;;;;;;20.26;71.40;102024.75;7395444;19;20445;-62
2023/10/02 08:54:18;;;;;;;22.50;11.52;;;;;;;20.35;71.11;102029.28;7395173;19;20026;-62
2023/10/02 08:57:02;;;;;;;19.92;11.00;;;;;;;20.40;70.42;102027.84;7395330;19;20014;-63
2023/10/02 08:59:35;;;;;;;22.25;11.65;;;;;;;20.36;70.74;102022.91;7392974;19;20507;-63
2023/10/02 09:02:07;;;;;;;23.77;11.75;;;;;;;20.38;71.13;102024.47;7394968;19;20022;-63
2023/10/02 09:04:34;;;;;;;21.40;11.55;;;;;;;20.39;70.25;102020.78;7393893;19;20513;-63
2023/10/02 09:07:17;;;;;;;24.20;12.40;;;;;;;20.36;71.02;102022.91;7395422;19;20040;-63
2023/10/02 09:09:54;;;;;;;22.27;11.45;;;;;;;20.36;71.25;102028.28;7392440;19;20024;-63
2023/10/02 09:12:22;;;;;;;20.40;11.13;;;;;;;20.44;71.01;102026.56;7395191;19;20036;-63
2023/10/02 09:14:52;;;;;;;23.58;12.48;;;;;;;20.58;70.49;102019.88;7392979;19;20074;-63
2023/10/02 09:17:20;;;;;;;21.40;11.95;;;;;;;20.64;70.16;102023.81;7393194;19;20355;-63
2023/10/02 09:20:07;;;;;;;23.30;11.57;;;;;;;20.67;69.75;102016.31;7392275;19;20051;-63
2023/10/02 09:22:38;;;;;;;21.92;11.35;;;;;;;20.55;70.29;102014.78;7394419;19;20030;-63
2023/10/02 09:25:26;;;;;;;24.40;13.05;;;;;;;20.60;70.27;102007.13;7393276;19;20021;-63
2023/10/02 09:27:59;;;;;;;22.38;11.73;;;;;;;20.51;70.85;102013.41;7393871;19;20048;-63
2023/10/02 09:33:23;;;;;;;21.70;12.07;;;;;;;20.59;70.43;102010.81;7392726;19;20490;-63
2023/10/02 09:36:04;;;;;;;20.92;11.63;;;;;;;20.55;70.63;102003.19;7392172;19;20014;-63
2023/10/02 09:38:53;;;;;;;22.10;12.27;;;;;;;20.53;70.70;102008.72;7391989;19;20029;-63
2023/10/02 09:41:23;;;;;;;23.80;13.30;;;;;;;20.57;70.36;102004.75;7391588;19;20028;-63
2023/10/02 09:43:52;;;;;;;22.90;12.35;;;;;;;20.64;70.65;102011.25;7393115;19;20011;-63
2023/10/02 09:46:22;;;;;;;22.88;11.60;;;;;;;20.66;69.86;102003.00;7392280;19;20030;-63
2023/10/02 09:49:10;;;;;;;22.52;11.50;;;;;;;20.72;69.98;101993.47;7392046;19;20143;-63
2023/10/02 09:52:15;;;;;;;22.40;12.52;;;;;;;20.69;70.49;101991.94;7391713;19;20018;-63
2023/10/02 09:55:00;;;;;;;23.60;13.15;;;;;;;20.69;70.76;101991.94;7393378;19;20010;-63
2023/10/02 09:57:34;;;;;;;23.63;12.27;;;;;;;20.74;70.13;101988.78;7393650;19;20022;-63
2023/10/02 10:00:34;;;;;;;21.98;11.38;;;;;;;20.81;69.58;101990.75;7392117;19;20040;-64
2023/10/02 10:03:24;;;;;;;24.50;13.00;;;;;;;20.88;69.41;101985.59;7392644;19;20194;-64
2023/10/02 10:06:15;;;;;;;22.17;11.63;;;;;;;20.90;69.39;101989.81;7392474;19;20034;-63
2023/10/02 10:11:42;;;;;;;23.02;11.98;;;;;;;20.98;69.88;101990.91;7393246;19;20110;-64
2023/10/02 10:14:37;;;;;;;26.70;12.60;;;;;;;21.16;69.30;101984.56;7392673;19;20021;-64
2023/10/02 10:17:12;;;;;;;21.17;11.43;;;;;;;21.18;69.78;101992.53;7392346;19;20022;-64
2023/10/02 10:20:10;;;;;;;24.17;12.63;;;;;;;21.35;69.68;101988.16;7390165;19;20044;-64
2023/10/02 10:22:39;;;;;;;24.33;12.95;;;;;;;21.35;69.13;101993.56;7392208;19;20022;-64
2023/10/02 10:27:41;;;;;;;23.02;12.43;;;;;;;21.51;68.42;101982.06;7391478;19;20025;-64
2023/10/02 10:35:49;;;;;;;23.38;12.38;;;;;;;21.52;68.26;101989.16;7390392;19;20357;-64
2023/10/02 10:38:28;;;;;;;23.25;12.38;;;;;;;21.61;68.30;101986.38;7391217;19;20039;-64
2023/10/02 10:41:05;;;;;;;22.55;11.98;;;;;;;21.63;68.22;101980.81;7392598;19;20040;-64
2023/10/02 10:46:27;;;;;;;20.52;11.32;;;;;;;21.63;67.88;101967.34;7391473;19;20017;-64
2023/10/02 10:49:08;;;;;;;23.63;10.98;;;;;;;21.62;68.19;101962.97;7390624;19;20011;-64
2023/10/02 10:51:40;;;;;;;19.90;10.82;;;;;;;21.64;67.70;101966.38;7390922;19;20128;-64
2023/10/02 10:54:12;;;;;;;22.42;11.15;;;;;;;21.65;67.49;101958.09;7398640;19;20014;-65
2023/10/02 10:56:44;;;;;;;22.85;11.27;;;;;;;21.75;67.77;101959.84;7398876;19;20031;-64
2023/10/02 10:59:12;;;;;;;23.17;11.35;;;;;;;21.84;67.64;101962.47;7396187;19;20015;-65
2023/10/02 11:02:15;;;;;;;23.50;12.07;;;;;;;21.93;66.97;101959.81;7401307;19;20094;-64
2023/10/02 11:04:47;;;;;;;23.25;11.38;;;;;;;21.92;67.15;101960.84;7400614;19;20029;-63
2023/10/02 11:07:19;;;;;;;23.27;10.35;;;;;;;21.98;67.05;101962.88;7399166;19;20022;-64
2023/10/02 11:10:14;;;;;;;22.70;11.88;;;;;;;22.04;66.08;101963.09;7395920;19;20022;-65
2023/10/02 11:13:08;;;;;;;22.38;11.07;;;;;;;21.98;66.38;101962.88;7399187;19;20018;-65
2023/10/02 11:15:46;;;;;;;20.17;10.52;;;;;;;21.97;66.41;101962.03;7398803;19;20082;-65
2023/10/02 11:18:18;;;;;;;23.17;11.68;;;;;;;22.05;65.82;101955.84;7395511;19;20029;-63
2023/10/02 11:20:49;;;;;;;23.25;10.85;;;;;;;22.11;65.83;101964.16;7397194;19;20023;-63
2023/10/02 11:23:29;;;;;;;24.02;10.93;;;;;;;22.23;65.50;101959.38;7398661;19;20040;-62
2023/10/02 11:25:58;;;;;;;22.65;11.65;;;;;;;22.24;65.88;101961.06;7396550;19;20359;-63
2023/10/02 11:28:32;;;;;;;23.15;11.45;;;;;;;22.28;65.88;101958.88;7395577;19;20022;-63
2023/10/02 11:31:36;;;;;;;21.63;11.23;;;;;;;22.35;65.63;101962.66;7397838;19;20039;-64
2023/10/02 11:34:03;;;;;;;;;;;;;;;22.22;66.22;101956.84;7396881;19;20022;-64
2023/10/02 11:36:54;;;;;;;20.77;11.57;;;;;;;22.23;66.94;101953.97;7397545;19;19925;-64
2023/10/02 11:39:27;;;;;;;22.45;11.43;;;;;;;22.28;66.06;101956.19;7394930;19;20030;-64
2023/10/02 11:41:55;;;;;;;21.38;11.10;;;;;;;22.22;66.22;101957.69;7398098;19;20050;-64
2023/10/02 11:44:24;;;;;;;21.08;11.55;;;;;;;22.24;66.88;101952.97;7399241;19;20033;-63
2023/10/02 11:46:52;;;;;;;23.13;11.40;;;;;;;22.26;66.78;101959.06;7395379;19;20015;-63
2023/10/02 11:49:19;;;;;;;19.42;10.80;;;;;;;22.25;66.75;101953.84;7394704;19;20011;-64
2023/10/02 11:51:47;;;;;;;22.40;11.43;;;;;;;22.30;67.15;101951.50;7396792;19;20074;-64
2023/10/02 11:54:17;;;;;;;19.77;11.02;;;;;;;22.28;66.97;101948.09;7396707;19;20379;-64
2023/10/02 11:56:47;;;;;;;18.70;10.20;;;;;;;22.31;66.75;101947.78;7396517;19;20040;-64
2023/10/02 11:59:14;;;;;;;21.08;10.88;;;;;;;22.35;67.19;101944.59;7392874;19;20029;-65
2023/10/02 12:01:47;;;;;;;19.65;10.63;;;;;;;22.29;66.65;101953.34;7396634;19;20037;-64
2023/10/02 12:04:15;;;;;;;23.45;11.23;;;;;;;22.21;67.75;101949.75;7394846;19;20010;-63
2023/10/02 12:06:43;;;;;;;20.42;10.90;;;;;;;22.17;67.35;101949.25;7394487;19;20047;-63
2023/10/02 12:09:17;;;;;;;18.92;10.18;;;;;;;22.17;67.55;101948.38;7393617;19;20051;-64
2023/10/02 12:11:45;;;;;;;20.90;10.77;;;;;;;22.19;67.79;101943.69;7394259;19;20058;-64
2023/10/02 12:14:13;;;;;;;20.65;10.85;;;;;;;22.24;67.38;101941.34;7396254;19;20026;-63
2023/10/02 12:16:41;;;;;;;19.48;10.38;;;;;;;22.28;66.92;101945.41;7395625;19;20035;-63
2023/10/02 12:19:10;;;;;;;18.70;9.90;;;;;;;22.36;67.12;101945.44;7394359;19;20075;-63
2023/10/02 12:21:39;;;;;;;20.38;10.25;;;;;;;22.45;66.45;101940.94;7396073;19;20031;-63
2023/10/02 12:24:19;;;;;;;21.75;10.73;;;;;;;22.46;66.52;101940.78;7396091;19;20015;-63
2023/10/02 12:26:46;;;;;;;22.30;10.70;;;;;;;22.44;66.45;101934.69;7394818;19;20128;-62
2023/10/02 12:29:15;;;;;;;21.90;10.90;;;;;;;22.50;66.17;101934.03;7393543;19;20021;-62
2023/10/02 12:31:43;;;;;;;21.65;11.02;;;;;;;22.53;66.09;101933.72;7396378;19;20007;-64
2023/10/02 12:34:13;;;;;;;20.95;9.90;;;;;;;22.64;66.04;101940.69;7395476;19;20021;-64
2023/10/02 12:36:41;;;;;;;20.70;11.02;;;;;;;22.75;65.45;101929.59;7393421;19;20031;-64
2023/10/02 12:39:12;;;;;;;18.98;10.23;;;;;;;22.83;65.81;101920.66;7391358;19;20497;-64